sensor_id;sensor_type;location;lat;lon;timestamp;P1;durP1;ratioP1;P2;durP2;ratioP2
77158;SDS011;66129;45.890;13.714;2024-02-15T00:00:19;13.05;;;7.05;;
77158;SDS011;66129;45.890;13.714;2024-02-15T00:02:47;14.25;;;7.65;;
77158;SDS011;66129;45.890;13.714;2024-02-15T00:05:12;13.68;;;8.52;;
77158;SDS011;66129;45.890;13.714;2024-02-15T00:07:39;13.45;;;8.10;;
77158;SDS011;66129;45.890;13.714;2024-02-15T00:10:05;15.40;;;8.45;;
77158;SDS011;66129;45.890;13.714;2024-02-15T00:12:31;15.55;;;7.07;;
77158;SDS011;66129;45.890;13.714;2024-02-15T00:14:57;13.65;;;7.05;;
77158;SDS011;66129;45.890;13.714;2024-02-15T00:17:25;12.02;;;6.85;;
77158;SDS011;66129;45.890;13.714;2024-02-15T00:19:54;13.20;;;7.50;;
77158;SDS011;66129;45.890;13.714;2024-02-15T00:22:20;14.93;;;7.95;;
77158;SDS011;66129;45.890;13.714;2024-02-15T00:24:46;14.88;;;8.25;;
77158;SDS011;66129;45.890;13.714;2024-02-15T00:27:14;18.17;;;8.25;;
77158;SDS011;66129;45.890;13.714;2024-02-15T00:29:40;14.02;;;7.82;;
77158;SDS011;66129;45.890;13.714;2024-02-15T00:32:06;13.68;;;7.00;;
77158;SDS011;66129;45.890;13.714;2024-02-15T00:34:32;10.80;;;6.72;;
77158;SDS011;66129;45.890;13.714;2024-02-15T00:36:58;15.27;;;8.02;;
77158;SDS011;66129;45.890;13.714;2024-02-15T00:39:24;14.82;;;7.57;;
77158;SDS011;66129;45.890;13.714;2024-02-15T00:41:49;15.75;;;7.85;;
77158;SDS011;66129;45.890;13.714;2024-02-15T00:44:15;12.10;;;6.97;;
77158;SDS011;66129;45.890;13.714;2024-02-15T00:46:42;14.35;;;8.18;;
77158;SDS011;66129;45.890;13.714;2024-02-15T00:49:08;15.18;;;9.00;;
77158;SDS011;66129;45.890;13.714;2024-02-15T00:51:34;16.58;;;9.07;;
77158;SDS011;66129;45.890;13.714;2024-02-15T00:54:01;16.27;;;8.60;;
77158;SDS011;66129;45.890;13.714;2024-02-15T00:56:28;17.50;;;8.93;;
77158;SDS011;66129;45.890;13.714;2024-02-15T00:58:56;20.15;;;8.05;;
77158;SDS011;66129;45.890;13.714;2024-02-15T01:01:22;17.65;;;9.02;;
77158;SDS011;66129;45.890;13.714;2024-02-15T01:03:47;18.50;;;9.02;;
77158;SDS011;66129;45.890;13.714;2024-02-15T01:06:13;16.52;;;9.60;;
77158;SDS011;66129;45.890;13.714;2024-02-15T01:08:39;15.00;;;8.23;;
77158;SDS011;66129;45.890;13.714;2024-02-15T01:11:04;19.48;;;8.57;;
77158;SDS011;66129;45.890;13.714;2024-02-15T01:13:31;12.88;;;7.38;;
77158;SDS011;66129;45.890;13.714;2024-02-15T01:15:56;14.07;;;7.35;;
77158;SDS011;66129;45.890;13.714;2024-02-15T01:18:22;12.75;;;7.00;;
77158;SDS011;66129;45.890;13.714;2024-02-15T01:20:48;18.55;;;7.38;;
77158;SDS011;66129;45.890;13.714;2024-02-15T01:23:13;16.15;;;9.15;;
77158;SDS011;66129;45.890;13.714;2024-02-15T01:25:39;16.60;;;10.32;;
77158;SDS011;66129;45.890;13.714;2024-02-15T01:28:05;23.02;;;13.43;;
77158;SDS011;66129;45.890;13.714;2024-02-15T01:30:31;16.88;;;10.68;;
77158;SDS011;66129;45.890;13.714;2024-02-15T01:32:57;13.95;;;8.95;;
77158;SDS011;66129;45.890;13.714;2024-02-15T01:35:23;13.68;;;7.75;;
77158;SDS011;66129;45.890;13.714;2024-02-15T01:37:48;13.32;;;8.02;;
77158;SDS011;66129;45.890;13.714;2024-02-15T01:40:13;14.90;;;7.97;;
77158;SDS011;66129;45.890;13.714;2024-02-15T01:42:40;19.38;;;9.30;;
77158;SDS011;66129;45.890;13.714;2024-02-15T01:45:06;15.25;;;8.73;;
77158;SDS011;66129;45.890;13.714;2024-02-15T01:47:32;14.23;;;7.80;;
77158;SDS011;66129;45.890;13.714;2024-02-15T01:49:58;16.17;;;9.75;;
77158;SDS011;66129;45.890;13.714;2024-02-15T01:52:24;16.65;;;9.82;;
77158;SDS011;66129;45.890;13.714;2024-02-15T01:54:52;14.63;;;8.50;;
77158;SDS011;66129;45.890;13.714;2024-02-15T01:57:19;16.50;;;8.45;;
77158;SDS011;66129;45.890;13.714;2024-02-15T01:59:51;14.00;;;8.65;;
77158;SDS011;66129;45.890;13.714;2024-02-15T02:02:17;15.10;;;9.27;;
77158;SDS011;66129;45.890;13.714;2024-02-15T02:04:46;16.58;;;8.65;;
77158;SDS011;66129;45.890;13.714;2024-02-15T02:07:12;16.90;;;7.88;;
77158;SDS011;66129;45.890;13.714;2024-02-15T02:09:39;14.90;;;7.13;;
77158;SDS011;66129;45.890;13.714;2024-02-15T02:12:05;17.02;;;7.97;;
77158;SDS011;66129;45.890;13.714;2024-02-15T02:14:32;14.80;;;7.28;;
77158;SDS011;66129;45.890;13.714;2024-02-15T02:17:10;11.70;;;6.72;;
77158;SDS011;66129;45.890;13.714;2024-02-15T02:19:39;11.90;;;5.60;;
77158;SDS011;66129;45.890;13.714;2024-02-15T02:22:05;10.25;;;6.18;;
77158;SDS011;66129;45.890;13.714;2024-02-15T02:24:31;14.93;;;7.35;;
77158;SDS011;66129;45.890;13.714;2024-02-15T02:27:03;14.50;;;6.78;;
77158;SDS011;66129;45.890;13.714;2024-02-15T02:29:30;15.93;;;8.15;;
77158;SDS011;66129;45.890;13.714;2024-02-15T02:31:57;11.52;;;7.25;;
77158;SDS011;66129;45.890;13.714;2024-02-15T02:34:22;10.02;;;6.18;;
77158;SDS011;66129;45.890;13.714;2024-02-15T02:36:48;12.85;;;6.15;;
77158;SDS011;66129;45.890;13.714;2024-02-15T02:39:15;12.57;;;6.63;;
77158;SDS011;66129;45.890;13.714;2024-02-15T02:41:41;11.95;;;6.35;;
77158;SDS011;66129;45.890;13.714;2024-02-15T02:44:07;11.93;;;7.07;;
77158;SDS011;66129;45.890;13.714;2024-02-15T02:46:33;15.10;;;7.53;;
77158;SDS011;66129;45.890;13.714;2024-02-15T02:48:58;14.48;;;7.00;;
77158;SDS011;66129;45.890;13.714;2024-02-15T02:51:24;11.93;;;7.05;;
77158;SDS011;66129;45.890;13.714;2024-02-15T02:53:49;11.15;;;6.45;;
77158;SDS011;66129;45.890;13.714;2024-02-15T02:56:15;11.32;;;6.15;;
77158;SDS011;66129;45.890;13.714;2024-02-15T02:58:40;10.82;;;5.65;;
77158;SDS011;66129;45.890;13.714;2024-02-15T03:01:09;11.07;;;6.45;;
77158;SDS011;66129;45.890;13.714;2024-02-15T03:03:35;14.55;;;7.65;;
77158;SDS011;66129;45.890;13.714;2024-02-15T03:06:01;13.77;;;6.57;;
77158;SDS011;66129;45.890;13.714;2024-02-15T03:08:26;12.38;;;6.80;;
77158;SDS011;66129;45.890;13.714;2024-02-15T03:10:52;10.18;;;6.55;;
77158;SDS011;66129;45.890;13.714;2024-02-15T03:13:18;13.98;;;6.80;;
77158;SDS011;66129;45.890;13.714;2024-02-15T03:15:46;8.43;;;5.15;;
77158;SDS011;66129;45.890;13.714;2024-02-15T03:18:16;9.18;;;5.47;;
77158;SDS011;66129;45.890;13.714;2024-02-15T03:20:42;11.77;;;5.80;;
77158;SDS011;66129;45.890;13.714;2024-02-15T03:23:08;13.20;;;6.53;;
77158;SDS011;66129;45.890;13.714;2024-02-15T03:25:33;15.82;;;6.70;;
77158;SDS011;66129;45.890;13.714;2024-02-15T03:27:59;9.25;;;5.90;;
77158;SDS011;66129;45.890;13.714;2024-02-15T03:30:29;12.38;;;6.22;;
77158;SDS011;66129;45.890;13.714;2024-02-15T03:32:56;11.55;;;5.70;;
77158;SDS011;66129;45.890;13.714;2024-02-15T03:35:24;11.40;;;6.93;;
77158;SDS011;66129;45.890;13.714;2024-02-15T03:37:51;18.35;;;6.18;;
77158;SDS011;66129;45.890;13.714;2024-02-15T03:40:18;11.40;;;6.47;;
77158;SDS011;66129;45.890;13.714;2024-02-15T03:42:44;9.82;;;7.07;;
77158;SDS011;66129;45.890;13.714;2024-02-15T03:45:10;12.23;;;5.63;;
77158;SDS011;66129;45.890;13.714;2024-02-15T03:47:36;11.02;;;6.95;;
77158;SDS011;66129;45.890;13.714;2024-02-15T03:50:04;12.90;;;7.57;;
77158;SDS011;66129;45.890;13.714;2024-02-15T03:52:31;14.18;;;6.30;;
77158;SDS011;66129;45.890;13.714;2024-02-15T03:54:57;14.07;;;7.70;;
77158;SDS011;66129;45.890;13.714;2024-02-15T03:57:24;20.30;;;8.30;;
77158;SDS011;66129;45.890;13.714;2024-02-15T03:59:50;12.57;;;7.10;;
77158;SDS011;66129;45.890;13.714;2024-02-15T04:02:19;12.85;;;7.43;;
77158;SDS011;66129;45.890;13.714;2024-02-15T04:04:45;10.20;;;6.00;;
77158;SDS011;66129;45.890;13.714;2024-02-15T04:07:15;11.80;;;6.90;;
77158;SDS011;66129;45.890;13.714;2024-02-15T04:09:43;8.95;;;5.47;;
77158;SDS011;66129;45.890;13.714;2024-02-15T04:12:09;9.30;;;5.03;;
77158;SDS011;66129;45.890;13.714;2024-02-15T04:14:34;10.95;;;6.13;;
77158;SDS011;66129;45.890;13.714;2024-02-15T04:17:00;11.40;;;5.57;;
77158;SDS011;66129;45.890;13.714;2024-02-15T04:19:27;9.70;;;5.97;;
77158;SDS011;66129;45.890;13.714;2024-02-15T04:21:52;13.00;;;7.28;;
77158;SDS011;66129;45.890;13.714;2024-02-15T04:24:20;12.98;;;6.28;;
77158;SDS011;66129;45.890;13.714;2024-02-15T04:26:46;13.20;;;7.25;;
77158;SDS011;66129;45.890;13.714;2024-02-15T04:29:13;11.15;;;6.55;;
77158;SDS011;66129;45.890;13.714;2024-02-15T04:31:44;14.95;;;6.30;;
77158;SDS011;66129;45.890;13.714;2024-02-15T04:34:10;13.43;;;6.85;;
77158;SDS011;66129;45.890;13.714;2024-02-15T04:36:35;12.73;;;6.75;;
77158;SDS011;66129;45.890;13.714;2024-02-15T04:39:01;16.58;;;7.05;;
77158;SDS011;66129;45.890;13.714;2024-02-15T04:41:27;13.05;;;6.78;;
77158;SDS011;66129;45.890;13.714;2024-02-15T04:43:54;13.20;;;7.45;;
77158;SDS011;66129;45.890;13.714;2024-02-15T04:46:19;12.30;;;6.47;;
77158;SDS011;66129;45.890;13.714;2024-02-15T04:48:48;12.90;;;6.65;;
77158;SDS011;66129;45.890;13.714;2024-02-15T04:51:17;19.48;;;9.75;;
77158;SDS011;66129;45.890;13.714;2024-02-15T04:53:44;13.10;;;8.50;;
77158;SDS011;66129;45.890;13.714;2024-02-15T04:56:11;12.35;;;7.15;;
77158;SDS011;66129;45.890;13.714;2024-02-15T04:58:42;9.68;;;5.30;;
77158;SDS011;66129;45.890;13.714;2024-02-15T05:01:14;12.15;;;6.45;;
77158;SDS011;66129;45.890;13.714;2024-02-15T05:03:41;11.02;;;6.78;;
77158;SDS011;66129;45.890;13.714;2024-02-15T05:06:07;15.00;;;7.85;;
77158;SDS011;66129;45.890;13.714;2024-02-15T05:08:34;11.98;;;7.45;;
77158;SDS011;66129;45.890;13.714;2024-02-15T05:11:07;10.63;;;6.70;;
77158;SDS011;66129;45.890;13.714;2024-02-15T05:13:40;14.43;;;7.63;;
77158;SDS011;66129;45.890;13.714;2024-02-15T05:16:05;14.38;;;6.70;;
77158;SDS011;66129;45.890;13.714;2024-02-15T05:18:31;11.25;;;7.20;;
77158;SDS011;66129;45.890;13.714;2024-02-15T05:20:56;17.33;;;9.45;;
77158;SDS011;66129;45.890;13.714;2024-02-15T05:23:22;16.85;;;8.60;;
77158;SDS011;66129;45.890;13.714;2024-02-15T05:25:48;16.02;;;9.00;;
77158;SDS011;66129;45.890;13.714;2024-02-15T05:28:13;13.68;;;7.72;;
77158;SDS011;66129;45.890;13.714;2024-02-15T05:30:39;17.13;;;8.25;;
77158;SDS011;66129;45.890;13.714;2024-02-15T05:33:05;15.60;;;8.02;;
77158;SDS011;66129;45.890;13.714;2024-02-15T05:35:35;19.90;;;10.63;;
77158;SDS011;66129;45.890;13.714;2024-02-15T05:38:01;14.98;;;7.30;;
77158;SDS011;66129;45.890;13.714;2024-02-15T05:40:29;11.70;;;6.50;;
77158;SDS011;66129;45.890;13.714;2024-02-15T05:42:55;14.35;;;7.85;;
77158;SDS011;66129;45.890;13.714;2024-02-15T05:47:48;16.52;;;8.27;;
77158;SDS011;66129;45.890;13.714;2024-02-15T05:50:13;17.08;;;8.00;;
77158;SDS011;66129;45.890;13.714;2024-02-15T05:52:40;11.30;;;6.93;;
77158;SDS011;66129;45.890;13.714;2024-02-15T05:55:06;14.10;;;6.97;;
77158;SDS011;66129;45.890;13.714;2024-02-15T05:57:32;15.85;;;7.47;;
77158;SDS011;66129;45.890;13.714;2024-02-15T05:59:57;16.95;;;7.50;;
77158;SDS011;66129;45.890;13.714;2024-02-15T06:02:27;17.40;;;9.50;;
77158;SDS011;66129;45.890;13.714;2024-02-15T06:04:53;16.58;;;8.40;;
77158;SDS011;66129;45.890;13.714;2024-02-15T06:07:19;14.80;;;8.90;;
77158;SDS011;66129;45.890;13.714;2024-02-15T06:09:45;14.73;;;7.25;;
77158;SDS011;66129;45.890;13.714;2024-02-15T06:12:11;20.33;;;8.60;;
77158;SDS011;66129;45.890;13.714;2024-02-15T06:14:36;41.78;;;21.55;;
77158;SDS011;66129;45.890;13.714;2024-02-15T06:17:02;30.73;;;18.20;;
77158;SDS011;66129;45.890;13.714;2024-02-15T06:19:28;26.45;;;15.05;;
77158;SDS011;66129;45.890;13.714;2024-02-15T06:21:53;22.00;;;14.00;;
77158;SDS011;66129;45.890;13.714;2024-02-15T06:24:19;36.67;;;20.88;;
77158;SDS011;66129;45.890;13.714;2024-02-15T06:26:44;40.03;;;23.13;;
77158;SDS011;66129;45.890;13.714;2024-02-15T06:29:10;20.15;;;12.23;;
77158;SDS011;66129;45.890;13.714;2024-02-15T06:34:38;18.58;;;10.43;;
77158;SDS011;66129;45.890;13.714;2024-02-15T06:37:35;17.17;;;8.65;;
77158;SDS011;66129;45.890;13.714;2024-02-15T06:40:20;11.68;;;7.22;;
77158;SDS011;66129;45.890;13.714;2024-02-15T06:42:46;11.05;;;6.70;;
77158;SDS011;66129;45.890;13.714;2024-02-15T06:45:12;13.55;;;7.20;;
77158;SDS011;66129;45.890;13.714;2024-02-15T06:47:41;12.98;;;8.18;;
77158;SDS011;66129;45.890;13.714;2024-02-15T06:50:10;15.50;;;8.18;;
77158;SDS011;66129;45.890;13.714;2024-02-15T06:52:42;15.65;;;8.48;;
77158;SDS011;66129;45.890;13.714;2024-02-15T06:55:08;11.40;;;8.00;;
77158;SDS011;66129;45.890;13.714;2024-02-15T06:57:37;17.13;;;7.55;;
77158;SDS011;66129;45.890;13.714;2024-02-15T07:00:05;12.48;;;6.88;;
77158;SDS011;66129;45.890;13.714;2024-02-15T07:02:39;17.50;;;12.43;;
77158;SDS011;66129;45.890;13.714;2024-02-15T07:05:04;10.65;;;7.20;;
77158;SDS011;66129;45.890;13.714;2024-02-15T07:07:31;8.45;;;4.90;;
77158;SDS011;66129;45.890;13.714;2024-02-15T07:09:57;8.82;;;5.43;;
77158;SDS011;66129;45.890;13.714;2024-02-15T07:12:23;9.60;;;5.93;;
77158;SDS011;66129;45.890;13.714;2024-02-15T07:14:49;15.00;;;7.05;;
77158;SDS011;66129;45.890;13.714;2024-02-15T07:17:16;12.05;;;6.88;;
77158;SDS011;66129;45.890;13.714;2024-02-15T07:19:44;13.25;;;7.70;;
77158;SDS011;66129;45.890;13.714;2024-02-15T07:22:10;16.20;;;7.65;;
77158;SDS011;66129;45.890;13.714;2024-02-15T07:24:36;14.10;;;7.63;;
77158;SDS011;66129;45.890;13.714;2024-02-15T07:27:05;11.82;;;6.05;;
77158;SDS011;66129;45.890;13.714;2024-02-15T07:29:31;13.07;;;6.13;;
77158;SDS011;66129;45.890;13.714;2024-02-15T07:31:57;15.55;;;6.07;;
77158;SDS011;66129;45.890;13.714;2024-02-15T07:34:29;10.60;;;5.28;;
77158;SDS011;66129;45.890;13.714;2024-02-15T07:36:58;13.55;;;6.13;;
77158;SDS011;66129;45.890;13.714;2024-02-15T07:39:24;11.23;;;6.13;;
77158;SDS011;66129;45.890;13.714;2024-02-15T07:41:53;9.82;;;5.35;;
77158;SDS011;66129;45.890;13.714;2024-02-15T07:44:20;7.88;;;4.32;;
77158;SDS011;66129;45.890;13.714;2024-02-15T07:46:47;11.75;;;4.40;;
77158;SDS011;66129;45.890;13.714;2024-02-15T07:49:12;9.95;;;4.25;;
77158;SDS011;66129;45.890;13.714;2024-02-15T07:51:38;6.68;;;4.03;;
77158;SDS011;66129;45.890;13.714;2024-02-15T07:54:04;14.80;;;7.25;;
77158;SDS011;66129;45.890;13.714;2024-02-15T07:56:29;8.98;;;5.03;;
77158;SDS011;66129;45.890;13.714;2024-02-15T07:58:55;9.98;;;5.60;;
77158;SDS011;66129;45.890;13.714;2024-02-15T08:01:21;10.15;;;5.70;;
77158;SDS011;66129;45.890;13.714;2024-02-15T08:03:47;10.32;;;6.60;;
77158;SDS011;66129;45.890;13.714;2024-02-15T08:06:15;12.45;;;7.85;;
77158;SDS011;66129;45.890;13.714;2024-02-15T08:08:41;13.02;;;8.95;;
77158;SDS011;66129;45.890;13.714;2024-02-15T08:11:10;7.63;;;5.20;;
77158;SDS011;66129;45.890;13.714;2024-02-15T08:13:43;13.77;;;5.68;;
77158;SDS011;66129;45.890;13.714;2024-02-15T08:16:09;14.43;;;6.15;;
77158;SDS011;66129;45.890;13.714;2024-02-15T08:18:36;12.32;;;5.32;;
77158;SDS011;66129;45.890;13.714;2024-02-15T08:21:02;10.85;;;4.38;;
77158;SDS011;66129;45.890;13.714;2024-02-15T08:23:29;5.75;;;3.53;;
77158;SDS011;66129;45.890;13.714;2024-02-15T08:25:54;5.63;;;3.42;;
77158;SDS011;66129;45.890;13.714;2024-02-15T08:28:20;5.35;;;3.65;;
77158;SDS011;66129;45.890;13.714;2024-02-15T08:30:46;8.10;;;3.85;;
77158;SDS011;66129;45.890;13.714;2024-02-15T08:33:12;6.22;;;3.70;;
77158;SDS011;66129;45.890;13.714;2024-02-15T08:35:37;7.40;;;3.80;;
77158;SDS011;66129;45.890;13.714;2024-02-15T08:38:05;10.50;;;4.22;;
77158;SDS011;66129;45.890;13.714;2024-02-15T08:40:31;7.78;;;4.20;;
77158;SDS011;66129;45.890;13.714;2024-02-15T08:42:57;7.22;;;3.45;;
77158;SDS011;66129;45.890;13.714;2024-02-15T08:45:23;5.93;;;3.30;;
77158;SDS011;66129;45.890;13.714;2024-02-15T08:47:49;5.85;;;3.63;;
77158;SDS011;66129;45.890;13.714;2024-02-15T08:50:18;5.10;;;3.25;;
77158;SDS011;66129;45.890;13.714;2024-02-15T08:52:44;5.13;;;3.40;;
77158;SDS011;66129;45.890;13.714;2024-02-15T08:55:09;6.35;;;3.60;;
77158;SDS011;66129;45.890;13.714;2024-02-15T08:57:39;5.78;;;4.05;;
77158;SDS011;66129;45.890;13.714;2024-02-15T09:00:09;5.40;;;3.53;;
77158;SDS011;66129;45.890;13.714;2024-02-15T09:02:45;5.72;;;3.38;;
77158;SDS011;66129;45.890;13.714;2024-02-15T09:05:11;9.27;;;3.08;;
77158;SDS011;66129;45.890;13.714;2024-02-15T09:07:40;6.32;;;3.10;;
77158;SDS011;66129;45.890;13.714;2024-02-15T09:10:08;4.60;;;2.65;;
77158;SDS011;66129;45.890;13.714;2024-02-15T09:12:35;5.72;;;3.22;;
77158;SDS011;66129;45.890;13.714;2024-02-15T09:15:03;5.80;;;3.33;;
77158;SDS011;66129;45.890;13.714;2024-02-15T09:17:29;5.43;;;3.45;;
77158;SDS011;66129;45.890;13.714;2024-02-15T09:19:57;5.50;;;3.22;;
77158;SDS011;66129;45.890;13.714;2024-02-15T09:22:23;6.07;;;3.70;;
77158;SDS011;66129;45.890;13.714;2024-02-15T09:24:49;6.60;;;2.85;;
77158;SDS011;66129;45.890;13.714;2024-02-15T09:27:14;7.07;;;3.50;;
77158;SDS011;66129;45.890;13.714;2024-02-15T09:29:40;5.18;;;3.35;;
77158;SDS011;66129;45.890;13.714;2024-02-15T09:32:06;8.38;;;4.18;;
77158;SDS011;66129;45.890;13.714;2024-02-15T09:34:32;8.10;;;5.25;;
77158;SDS011;66129;45.890;13.714;2024-02-15T09:36:58;9.80;;;4.57;;
77158;SDS011;66129;45.890;13.714;2024-02-15T09:39:23;4.95;;;3.70;;
77158;SDS011;66129;45.890;13.714;2024-02-15T09:41:49;45.38;;;14.45;;
77158;SDS011;66129;45.890;13.714;2024-02-15T09:44:23;23.20;;;7.00;;
77158;SDS011;66129;45.890;13.714;2024-02-15T09:47:04;6.35;;;3.70;;
77158;SDS011;66129;45.890;13.714;2024-02-15T09:49:36;17.35;;;7.35;;
77158;SDS011;66129;45.890;13.714;2024-02-15T09:52:05;8.50;;;4.18;;
77158;SDS011;66129;45.890;13.714;2024-02-15T09:54:39;12.20;;;5.22;;
77158;SDS011;66129;45.890;13.714;2024-02-15T09:57:08;15.20;;;5.82;;
77158;SDS011;66129;45.890;13.714;2024-02-15T09:59:35;7.82;;;3.88;;
77158;SDS011;66129;45.890;13.714;2024-02-15T10:02:01;6.75;;;4.22;;
77158;SDS011;66129;45.890;13.714;2024-02-15T10:04:27;3.55;;;2.38;;
77158;SDS011;66129;45.890;13.714;2024-02-15T10:06:53;7.65;;;2.85;;
77158;SDS011;66129;45.890;13.714;2024-02-15T10:11:54;5.50;;;3.83;;
77158;SDS011;66129;45.890;13.714;2024-02-15T10:14:22;4.10;;;2.60;;
77158;SDS011;66129;45.890;13.714;2024-02-15T10:16:49;4.60;;;2.70;;
77158;SDS011;66129;45.890;13.714;2024-02-15T10:19:14;4.82;;;2.75;;
77158;SDS011;66129;45.890;13.714;2024-02-15T10:21:41;5.75;;;3.78;;
77158;SDS011;66129;45.890;13.714;2024-02-15T10:24:06;5.82;;;3.00;;
77158;SDS011;66129;45.890;13.714;2024-02-15T10:26:34;7.03;;;2.33;;
77158;SDS011;66129;45.890;13.714;2024-02-15T10:29:07;4.47;;;2.65;;
77158;SDS011;66129;45.890;13.714;2024-02-15T10:31:39;5.90;;;2.63;;
77158;SDS011;66129;45.890;13.714;2024-02-15T10:34:16;3.58;;;2.45;;
77158;SDS011;66129;45.890;13.714;2024-02-15T10:36:44;3.42;;;2.05;;
77158;SDS011;66129;45.890;13.714;2024-02-15T10:39:13;5.57;;;2.90;;
77158;SDS011;66129;45.890;13.714;2024-02-15T10:41:48;5.40;;;2.25;;
77158;SDS011;66129;45.890;13.714;2024-02-15T10:44:16;4.78;;;3.17;;
77158;SDS011;66129;45.890;13.714;2024-02-15T10:46:50;5.47;;;3.28;;
77158;SDS011;66129;45.890;13.714;2024-02-15T10:49:24;6.03;;;3.70;;
77158;SDS011;66129;45.890;13.714;2024-02-15T10:51:57;5.88;;;3.30;;
77158;SDS011;66129;45.890;13.714;2024-02-15T10:55:08;5.30;;;3.10;;
77158;SDS011;66129;45.890;13.714;2024-02-15T10:57:12;8.18;;;3.60;;
77158;SDS011;66129;45.890;13.714;2024-02-15T10:59:43;5.75;;;3.60;;
77158;SDS011;66129;45.890;13.714;2024-02-15T11:02:35;5.55;;;3.45;;
77158;SDS011;66129;45.890;13.714;2024-02-15T11:05:06;6.63;;;3.63;;
77158;SDS011;66129;45.890;13.714;2024-02-15T11:07:37;4.65;;;3.22;;
77158;SDS011;66129;45.890;13.714;2024-02-15T11:10:04;5.07;;;3.13;;
77158;SDS011;66129;45.890;13.714;2024-02-15T11:12:35;7.65;;;3.47;;
77158;SDS011;66129;45.890;13.714;2024-02-15T11:15:02;8.48;;;3.88;;
77158;SDS011;66129;45.890;13.714;2024-02-15T11:22:57;6.10;;;3.65;;
77158;SDS011;66129;45.890;13.714;2024-02-15T11:25:38;8.45;;;5.45;;
77158;SDS011;66129;45.890;13.714;2024-02-15T11:30:51;12.77;;;7.22;;
77158;SDS011;66129;45.890;13.714;2024-02-15T11:33:29;11.63;;;6.32;;
77158;SDS011;66129;45.890;13.714;2024-02-15T11:36:06;13.90;;;6.10;;
77158;SDS011;66129;45.890;13.714;2024-02-15T11:38:36;12.57;;;5.18;;
77158;SDS011;66129;45.890;13.714;2024-02-15T11:41:06;13.15;;;5.88;;
77158;SDS011;66129;45.890;13.714;2024-02-15T11:46:25;9.65;;;5.13;;
77158;SDS011;66129;45.890;13.714;2024-02-15T11:48:57;9.07;;;5.20;;
77158;SDS011;66129;45.890;13.714;2024-02-15T11:54:01;11.50;;;6.10;;
77158;SDS011;66129;45.890;13.714;2024-02-15T11:56:30;10.30;;;5.45;;
77158;SDS011;66129;45.890;13.714;2024-02-15T11:59:02;8.20;;;4.65;;
77158;SDS011;66129;45.890;13.714;2024-02-15T12:01:31;8.88;;;4.38;;
77158;SDS011;66129;45.890;13.714;2024-02-15T12:04:15;9.13;;;4.55;;
77158;SDS011;66129;45.890;13.714;2024-02-15T12:07:00;9.18;;;4.25;;
77158;SDS011;66129;45.890;13.714;2024-02-15T12:09:44;6.57;;;4.00;;
77158;SDS011;66129;45.890;13.714;2024-02-15T12:12:28;8.43;;;4.70;;
77158;SDS011;66129;45.890;13.714;2024-02-15T12:15:12;9.20;;;5.05;;
77158;SDS011;66129;45.890;13.714;2024-02-15T12:18:12;7.80;;;4.50;;
77158;SDS011;66129;45.890;13.714;2024-02-15T12:20:57;11.15;;;5.57;;
77158;SDS011;66129;45.890;13.714;2024-02-15T12:23:23;9.98;;;5.47;;
77158;SDS011;66129;45.890;13.714;2024-02-15T12:25:53;12.23;;;5.45;;
77158;SDS011;66129;45.890;13.714;2024-02-15T12:28:22;10.65;;;5.22;;
77158;SDS011;66129;45.890;13.714;2024-02-15T12:30:48;9.02;;;4.20;;
77158;SDS011;66129;45.890;13.714;2024-02-15T12:33:22;8.15;;;5.15;;
77158;SDS011;66129;45.890;13.714;2024-02-15T12:35:48;9.38;;;4.30;;
77158;SDS011;66129;45.890;13.714;2024-02-15T12:38:15;8.30;;;3.90;;
77158;SDS011;66129;45.890;13.714;2024-02-15T12:40:41;8.10;;;4.60;;
77158;SDS011;66129;45.890;13.714;2024-02-15T12:43:07;7.45;;;4.72;;
77158;SDS011;66129;45.890;13.714;2024-02-15T12:45:40;11.05;;;4.32;;
77158;SDS011;66129;45.890;13.714;2024-02-15T12:48:07;10.82;;;3.95;;
77158;SDS011;66129;45.890;13.714;2024-02-15T12:50:33;10.10;;;4.40;;
77158;SDS011;66129;45.890;13.714;2024-02-15T12:52:59;10.00;;;5.53;;
77158;SDS011;66129;45.890;13.714;2024-02-15T12:55:29;9.13;;;5.47;;
77158;SDS011;66129;45.890;13.714;2024-02-15T12:57:59;8.15;;;4.18;;
77158;SDS011;66129;45.890;13.714;2024-02-15T13:00:28;8.80;;;4.88;;
77158;SDS011;66129;45.890;13.714;2024-02-15T13:02:57;9.82;;;4.57;;
77158;SDS011;66129;45.890;13.714;2024-02-15T13:05:24;9.00;;;5.03;;
77158;SDS011;66129;45.890;13.714;2024-02-15T13:07:51;10.18;;;5.07;;
77158;SDS011;66129;45.890;13.714;2024-02-15T13:10:23;9.65;;;5.78;;
77158;SDS011;66129;45.890;13.714;2024-02-15T13:12:51;11.23;;;5.07;;
77158;SDS011;66129;45.890;13.714;2024-02-15T13:15:18;10.75;;;5.93;;
77158;SDS011;66129;45.890;13.714;2024-02-15T13:17:47;9.73;;;5.70;;
77158;SDS011;66129;45.890;13.714;2024-02-15T13:20:16;9.35;;;5.35;;
77158;SDS011;66129;45.890;13.714;2024-02-15T13:22:45;12.85;;;6.10;;
77158;SDS011;66129;45.890;13.714;2024-02-15T13:25:13;10.18;;;5.63;;
77158;SDS011;66129;45.890;13.714;2024-02-15T13:27:41;8.85;;;5.22;;
77158;SDS011;66129;45.890;13.714;2024-02-15T13:30:08;8.45;;;4.90;;
77158;SDS011;66129;45.890;13.714;2024-02-15T13:32:35;8.30;;;4.47;;
77158;SDS011;66129;45.890;13.714;2024-02-15T13:35:03;11.80;;;5.45;;
77158;SDS011;66129;45.890;13.714;2024-02-15T13:37:37;10.13;;;5.68;;
77158;SDS011;66129;45.890;13.714;2024-02-15T13:40:08;8.75;;;5.15;;
77158;SDS011;66129;45.890;13.714;2024-02-15T13:45:20;10.63;;;6.05;;
77158;SDS011;66129;45.890;13.714;2024-02-15T13:48:06;8.52;;;4.95;;
77158;SDS011;66129;45.890;13.714;2024-02-15T13:50:32;9.65;;;5.07;;
77158;SDS011;66129;45.890;13.714;2024-02-15T13:52:58;11.40;;;5.63;;
77158;SDS011;66129;45.890;13.714;2024-02-15T13:55:24;10.07;;;5.00;;
77158;SDS011;66129;45.890;13.714;2024-02-15T13:57:54;12.32;;;6.65;;
77158;SDS011;66129;45.890;13.714;2024-02-15T14:00:24;9.88;;;5.65;;
77158;SDS011;66129;45.890;13.714;2024-02-15T14:02:59;9.60;;;5.18;;
77158;SDS011;66129;45.890;13.714;2024-02-15T14:05:26;10.80;;;5.35;;
77158;SDS011;66129;45.890;13.714;2024-02-15T14:08:00;12.27;;;5.75;;
77158;SDS011;66129;45.890;13.714;2024-02-15T14:10:34;17.40;;;6.45;;
77158;SDS011;66129;45.890;13.714;2024-02-15T14:13:01;11.23;;;5.45;;
77158;SDS011;66129;45.890;13.714;2024-02-15T14:15:31;11.38;;;5.82;;
77158;SDS011;66129;45.890;13.714;2024-02-15T14:18:06;9.18;;;4.85;;
77158;SDS011;66129;45.890;13.714;2024-02-15T14:20:35;8.00;;;4.30;;
77158;SDS011;66129;45.890;13.714;2024-02-15T14:23:01;9.85;;;5.30;;
77158;SDS011;66129;45.890;13.714;2024-02-15T14:25:31;9.13;;;4.72;;
77158;SDS011;66129;45.890;13.714;2024-02-15T14:27:57;11.50;;;4.95;;
77158;SDS011;66129;45.890;13.714;2024-02-15T14:30:23;11.55;;;5.18;;
77158;SDS011;66129;45.890;13.714;2024-02-15T14:33:08;9.13;;;4.85;;
77158;SDS011;66129;45.890;13.714;2024-02-15T14:35:37;11.80;;;6.05;;
77158;SDS011;66129;45.890;13.714;2024-02-15T14:40:36;8.18;;;4.85;;
77158;SDS011;66129;45.890;13.714;2024-02-15T14:43:02;10.32;;;4.68;;
77158;SDS011;66129;45.890;13.714;2024-02-15T14:45:30;11.60;;;5.50;;
77158;SDS011;66129;45.890;13.714;2024-02-15T14:47:57;12.02;;;4.25;;
77158;SDS011;66129;45.890;13.714;2024-02-15T14:50:23;11.05;;;4.68;;
77158;SDS011;66129;45.890;13.714;2024-02-15T14:52:49;11.40;;;4.85;;
77158;SDS011;66129;45.890;13.714;2024-02-15T14:55:15;12.95;;;5.60;;
77158;SDS011;66129;45.890;13.714;2024-02-15T14:57:42;13.27;;;6.55;;